LIBQ  Monte Scuro  Airport

Italy

Add Bookmark
ICAO LIBQ
Type Airport
Status Operational
Latitude
39° 19' 12" N
39.320000
Longitude
16° 22' 47" E
16.380000
Local (GMT +1 ) UTC
Dec 6, 2016 01:44 am Dec 6, 2016 00:44
Sunrise-Sunset Local UTC
Begin Civil Twilight 06:29 am 05:29
Sunrise 06:59 am 05:59
Sunset 04:32 pm 15:32
End Civil Twilight 05:02 pm 16:02
VFR
VFR
MVFR
MVFR
IFR
IFR
LIFR
LIFR
Unknown
No Data

Current Weather

METAR Observed VFR
LIBQ 052355Z 00000KT CAVOK 03/03 Q1025 Mon, Dec 5, 2016 @ 23:55 UTC
(49 Minutes ago)
Visual Flight Rules
Wind Visibility Conditions
Calm 10 km or more
  • No significant weather
Temperatures Readings Precipitation
Current Temp
3°C
37°F
Dewpoint
3°C
37°F
Humidity 100%
Altimeter 30.27" Hg
Sea Level Pressure 1,025 mb
Field Elevation
1,720 m
5,643 ft
None Recorded

Additional weather within a 92.6km radius of LIBQ

Map ICAO Location
LICA 47.6km S/SW (195°)
VFR
VFR
MVFR
MVFR
IFR
IFR
LIFR
LIFR
Unknown
No Data
-
-

CheckWX.com is intended as a tool to help pilots better visualize weather data. It is not intended as a substitute for an official weather briefing obtained from a Flight Service Station. CheckWX.com does not meet the FAA requirements for an official pre-flight weather briefing. Therefore, it's important that pilots still call and obtain an official FSS pre-flight weather briefing.

© 2007-2016 CheckWX.com
00:44:03 UTC